Time;durP1;ratioP1;P1;durP2;ratioP2;P2;SDS_P1;SDS_P2;PMS_P1;PMS_P2;Temp;Humidity;BMP_temperature;BMP_pressure;BME280_temperature;BME280_humidity;BME280_pressure;Samples;Min_cycle;Max_cycle;Signal;HPM_P1;HPM_P2
2023/06/20 00:00:47;;;;;;;16.05;14.45;;;;;;;21.92;60.29;100964.38;5032339;28;20620;-72
2023/06/20 00:03:16;;;;;;;17.20;15.18;;;;;;;21.86;60.31;100963.13;5043955;28;20040;-72
2023/06/20 00:05:42;;;;;;;19.33;15.45;;;;;;;21.82;60.53;100967.13;5042861;28;20459;-75
2023/06/20 00:08:07;;;;;;;17.45;15.20;;;;;;;21.86;60.36;100967.66;5042952;28;20043;-72
2023/06/20 00:10:32;;;;;;;16.08;14.57;;;;;;;21.92;60.33;100968.94;5042544;28;20455;-69
2023/06/20 00:12:59;;;;;;;18.52;14.98;;;;;;;21.81;60.69;100965.41;5041052;28;20474;-69
2023/06/20 00:15:25;;;;;;;16.10;14.43;;;;;;;21.87;60.75;100963.97;5041518;28;20036;-69
2023/06/20 00:17:55;;;;;;;15.77;14.18;;;;;;;21.81;60.98;100964.53;5042695;28;20071;-71
2023/06/20 00:20:20;;;;;;;16.42;14.70;;;;;;;21.78;61.14;100959.41;5041912;28;20025;-71
2023/06/20 00:22:45;;;;;;;18.40;16.10;;;;;;;21.70;61.30;100954.75;5042635;28;20040;-72
2023/06/20 00:25:11;;;;;;;16.83;15.05;;;;;;;21.73;61.42;100959.84;5042876;28;20030;-70
2023/06/20 00:27:36;;;;;;;15.63;14.02;;;;;;;21.69;61.73;100961.16;5044896;28;20208;-75
2023/06/20 00:30:02;;;;;;;16.17;14.55;;;;;;;21.69;61.61;100958.44;5046510;28;20479;-73
2023/06/20 00:32:27;;;;;;;15.52;13.90;;;;;;;21.67;61.78;100954.19;5046755;28;20033;-73
2023/06/20 00:34:53;;;;;;;15.93;14.32;;;;;;;21.69;61.73;100954.88;5025369;28;20392;-72
2023/06/20 00:37:18;;;;;;;15.57;13.98;;;;;;;21.58;62.40;100936.97;5046020;28;20483;-74
2023/06/20 00:39:44;;;;;;;16.25;14.63;;;;;;;21.53;62.23;100948.25;5047177;28;20498;-69
2023/06/20 00:42:20;;;;;;;16.00;14.40;;;;;;;21.42;62.42;100944.84;5047363;28;20035;-74
2023/06/20 00:44:48;;;;;;;16.30;14.50;;;;;;;21.41;63.04;100940.44;5046942;28;20082;-74
2023/06/20 00:47:18;;;;;;;15.25;13.85;;;;;;;21.39;62.81;100943.28;5047469;28;20029;-69
2023/06/20 00:49:48;;;;;;;15.75;14.13;;;;;;;21.37;62.80;100940.72;5043944;28;20021;-68
2023/06/20 00:52:17;;;;;;;15.70;14.10;;;;;;;21.33;63.02;100942.00;5043208;28;20182;-70
2023/06/20 00:54:47;;;;;;;17.95;13.88;;;;;;;21.31;63.23;100943.13;5044046;28;20133;-74
2023/06/20 00:57:17;;;;;;;15.25;13.65;;;;;;;21.29;63.26;100940.56;5046315;28;20041;-72
2023/06/20 00:59:48;;;;;;;15.57;13.98;;;;;;;21.27;63.15;100939.00;5046237;28;20036;-73
2023/06/20 01:02:15;;;;;;;15.93;14.30;;;;;;;21.17;63.67;100930.88;5055019;28;20406;-73
2023/06/20 01:04:42;;;;;;;15.57;13.30;;;;;;;21.22;63.44;100936.72;5043924;28;20554;-73
2023/06/20 01:07:31;;;;;;;14.73;13.32;;;;;;;21.28;63.18;100938.00;5044476;28;20036;-72
2023/06/20 01:10:08;;;;;;;15.15;13.55;;;;;;;21.27;63.16;100934.41;5038107;28;20056;-68
2023/06/20 01:13:04;;;;;;;14.95;13.23;;;;;;;21.30;62.63;100931.44;5044849;28;20719;-68
2023/06/20 01:15:53;;;;;;;16.92;13.98;;;;;;;21.26;63.27;100927.31;5029349;28;20037;-73
2023/06/20 01:18:54;;;;;;;13.55;12.25;;;;;;;21.27;62.80;100928.16;5042743;28;20029;-73
2023/06/20 01:21:30;;;;;;;14.68;13.18;;;;;;;21.19;63.80;100930.72;5040185;28;20040;-67
2023/06/20 01:24:02;;;;;;;14.52;13.10;;;;;;;21.19;63.50;100926.16;5047637;28;20032;-70
2023/06/20 01:26:52;;;;;;;15.07;13.60;;;;;;;21.20;62.98;100919.78;5046931;28;20055;-71
2023/06/20 01:29:24;;;;;;;15.23;13.43;;;;;;;21.13;63.61;100927.63;5047415;28;20017;-71
2023/06/20 01:32:00;;;;;;;14.88;13.27;;;;;;;21.18;63.48;100919.06;5047664;28;20065;-69
2023/06/20 01:34:28;;;;;;;15.18;13.43;;;;;;;21.09;64.26;100914.53;5048514;28;20071;-70
2023/06/20 01:36:56;;;;;;;16.20;13.95;;;;;;;20.97;64.69;100921.06;5057101;28;20035;-70
2023/06/20 01:39:28;;;;;;;15.57;14.10;;;;;;;20.89;64.66;100914.53;5056156;28;20029;-72
2023/06/20 01:41:56;;;;;;;16.42;14.27;;;;;;;20.91;64.86;100921.66;5045626;28;20287;-70
2023/06/20 01:44:22;;;;;;;16.83;14.63;;;;;;;20.89;64.81;100911.81;5044074;28;20083;-73
2023/06/20 01:46:50;;;;;;;14.32;12.93;;;;;;;20.85;64.74;100907.69;5044665;28;20387;-73
2023/06/20 01:49:16;;;;;;;15.52;13.70;;;;;;;20.89;64.73;100903.69;5044045;28;20037;-68
2023/06/20 01:51:42;;;;;;;15.93;14.23;;;;;;;20.81;64.90;100900.84;5040934;28;20045;-73
2023/06/20 01:54:09;;;;;;;15.13;13.52;;;;;;;20.79;65.14;100904.72;5026665;28;20032;-75
2023/06/20 01:56:37;;;;;;;15.73;13.40;;;;;;;20.80;65.36;100899.16;5044529;28;20330;-71
2023/06/20 01:59:03;;;;;;;15.05;13.52;;;;;;;20.72;65.60;100896.31;5045928;28;20082;-72
2023/06/20 02:01:31;;;;;;;16.00;13.90;;;;;;;20.74;65.65;100902.44;5036493;28;20029;-73
2023/06/20 02:03:57;;;;;;;15.48;13.93;;;;;;;20.77;65.57;100899.44;5060720;28;20024;-68
2023/06/20 02:06:24;;;;;;;15.90;12.98;;;;;;;20.80;65.03;100891.03;5055223;28;20028;-69
2023/06/20 02:08:51;;;;;;;15.55;13.90;;;;;;;20.72;65.26;100893.59;5059522;28;20025;-68
2023/06/20 02:11:19;;;;;;;14.25;12.85;;;;;;;20.76;65.79;100894.19;5059855;28;20032;-72
2023/06/20 02:13:49;;;;;;;14.88;13.45;;;;;;;20.79;65.40;100897.44;5051767;28;20022;-72
2023/06/20 02:16:16;;;;;;;13.38;12.15;;;;;;;20.78;65.75;100895.75;5048766;28;20100;-73
2023/06/20 02:18:41;;;;;;;14.93;12.55;;;;;;;20.74;65.74;100899.75;5053219;28;20025;-67
2023/06/20 02:21:10;;;;;;;17.13;13.52;;;;;;;20.71;66.26;100896.47;5047346;28;20047;-72
2023/06/20 02:23:38;;;;;;;17.80;13.98;;;;;;;20.70;65.92;100892.91;5044569;28;20017;-68
2023/06/20 02:26:11;;;;;;;14.13;12.80;;;;;;;20.72;66.07;100900.88;5043612;28;20160;-69
2023/06/20 02:28:42;;;;;;;15.13;13.07;;;;;;;20.71;66.16;100899.16;5041450;28;20025;-73
2023/06/20 02:31:10;;;;;;;15.07;13.35;;;;;;;20.63;66.18;100905.28;5041781;28;20508;-71
2023/06/20 02:33:37;;;;;;;14.25;12.77;;;;;;;20.57;66.65;100909.41;5035887;28;20968;-72
2023/06/20 02:36:04;;;;;;;14.48;13.05;;;;;;;20.65;66.52;100903.31;5041977;28;20127;-69
2023/06/20 02:38:31;;;;;;;16.55;13.75;;;;;;;20.65;66.17;100914.13;5040318;28;20031;-73
2023/06/20 02:40:57;;;;;;;15.88;14.10;;;;;;;20.68;66.06;100911.09;5041914;28;20075;-70
2023/06/20 02:43:22;;;;;;;14.75;13.30;;;;;;;20.66;66.43;100910.41;5041232;28;20582;-72
2023/06/20 02:45:54;;;;;;;15.00;13.40;;;;;;;20.58;66.56;100911.13;5041497;28;20395;-71
2023/06/20 02:48:19;;;;;;;14.93;13.32;;;;;;;20.59;66.43;100904.69;5022990;28;20028;-72
2023/06/20 02:51:02;;;;;;;15.00;13.40;;;;;;;20.63;66.54;100899.88;5033704;28;20025;-69
2023/06/20 02:53:43;;;;;;;15.10;13.63;;;;;;;20.57;66.73;100900.44;5038559;28;20554;-73
2023/06/20 02:56:13;;;;;;;14.75;13.30;;;;;;;20.45;67.68;100896.13;5041710;28;20148;-73
2023/06/20 02:58:43;;;;;;;15.15;13.57;;;;;;;20.43;67.67;100893.56;5042763;28;20116;-69
2023/06/20 03:01:10;;;;;;;15.25;13.70;;;;;;;20.42;67.55;100897.25;5038545;28;21664;-74
2023/06/20 03:03:39;;;;;;;14.80;13.30;;;;;;;20.39;67.90;100890.28;5039295;28;20430;-73
2023/06/20 03:06:07;;;;;;;14.57;13.23;;;;;;;20.36;68.14;100890.56;5038046;28;20434;-74
2023/06/20 03:08:33;;;;;;;15.68;14.18;;;;;;;20.34;68.48;100892.53;5036292;28;20040;-69
2023/06/20 03:11:00;;;;;;;15.98;14.25;;;;;;;20.27;68.51;100893.25;5037981;28;20161;-69
2023/06/20 03:13:27;;;;;;;16.02;14.43;;;;;;;20.20;68.88;100890.25;5041474;28;20029;-69
2023/06/20 03:15:55;;;;;;;15.63;14.02;;;;;;;20.18;68.76;100891.38;5041977;28;20043;-74
2023/06/20 03:18:20;;;;;;;16.77;15.07;;;;;;;20.12;68.92;100887.41;5042517;28;20021;-73
2023/06/20 03:20:48;;;;;;;16.65;14.95;;;;;;;20.13;68.92;100883.69;5040419;28;20497;-71
2023/06/20 03:23:13;;;;;;;17.25;15.52;;;;;;;20.13;69.19;100879.13;5039469;28;20096;-72
2023/06/20 03:25:39;;;;;;;17.38;15.77;;;;;;;20.12;69.19;100882.84;5040091;28;20818;-74
2023/06/20 03:28:04;;;;;;;18.13;16.23;;;;;;;20.09;69.02;100879.56;5041551;28;20060;-69
2023/06/20 03:30:29;;;;;;;16.90;15.25;;;;;;;20.07;69.36;100889.66;5034156;28;20148;-73
2023/06/20 03:32:55;;;;;;;16.92;15.32;;;;;;;20.12;69.57;100890.09;5041419;28;20029;-73
2023/06/20 03:35:20;;;;;;;16.58;14.95;;;;;;;20.15;69.11;100887.97;5041424;28;20039;-74
2023/06/20 03:37:46;;;;;;;16.50;14.95;;;;;;;20.15;69.04;100900.63;5039092;28;20411;-70
2023/06/20 03:40:11;;;;;;;16.40;14.68;;;;;;;20.21;69.12;100902.78;5043291;28;20295;-74
2023/06/20 03:42:37;;;;;;;17.40;15.63;;;;;;;20.16;69.16;100915.84;5035854;28;20506;-72
2023/06/20 03:45:02;;;;;;;18.05;16.25;;;;;;;20.17;69.30;100912.16;5038978;28;20087;-72
2023/06/20 03:47:28;;;;;;;18.23;16.50;;;;;;;20.14;69.05;100913.25;5040840;28;20454;-72
2023/06/20 03:49:53;;;;;;;17.00;15.32;;;;;;;20.21;69.44;100923.53;5040702;28;20121;-72
2023/06/20 03:52:19;;;;;;;17.10;15.30;;;;;;;20.17;69.73;100925.66;5041553;28;20041;-72
2023/06/20 03:54:44;;;;;;;18.08;16.30;;;;;;;20.29;69.31;100935.38;5024484;28;20538;-72
2023/06/20 03:57:09;;;;;;;17.13;15.40;;;;;;;20.29;69.03;100935.38;5024362;28;20025;-72
2023/06/20 03:59:34;;;;;;;17.95;16.08;;;;;;;20.32;69.02;100932.41;5040201;28;20155;-71
2023/06/20 04:02:00;;;;;;;18.65;16.83;;;;;;;20.28;69.00;100930.09;5040742;28;20062;-74
2023/06/20 04:04:25;;;;;;;18.05;16.23;;;;;;;20.30;68.89;100926.25;5040093;28;20087;-71
2023/06/20 04:06:53;;;;;;;18.85;16.95;;;;;;;20.37;68.89;100930.13;5042379;28;20091;-74
2023/06/20 04:09:18;;;;;;;20.42;18.25;;;;;;;20.30;68.29;100926.25;5041951;28;20433;-72
2023/06/20 04:11:45;;;;;;;19.48;16.77;;;;;;;20.39;68.42;100930.81;5042250;28;20037;-69
2023/06/20 04:14:11;;;;;;;17.98;16.17;;;;;;;20.48;68.52;100929.16;5040700;28;20025;-72
2023/06/20 04:16:36;;;;;;;18.25;16.45;;;;;;;20.60;68.15;100921.78;5041834;28;20025;-69
2023/06/20 04:19:02;;;;;;;18.38;16.58;;;;;;;20.63;68.41;100914.25;5040064;28;20257;-74
2023/06/20 04:21:27;;;;;;;18.85;16.92;;;;;;;20.60;68.32;100909.09;5041650;28;20459;-73
2023/06/20 04:23:53;;;;;;;18.30;16.42;;;;;;;20.61;69.02;100893.75;5041880;28;20095;-74
2023/06/20 04:26:18;;;;;;;18.30;16.33;;;;;;;20.62;68.85;100896.31;5042360;28;20033;-74
2023/06/20 04:28:43;;;;;;;18.08;16.33;;;;;;;20.52;69.65;100887.31;5042163;28;20025;-74
2023/06/20 04:31:10;;;;;;;20.15;18.05;;;;;;;20.47;69.07;100886.03;5041839;28;20029;-73
2023/06/20 04:33:35;;;;;;;19.83;17.83;;;;;;;20.41;69.51;100882.03;5040420;28;20075;-74
2023/06/20 04:36:00;;;;;;;20.52;18.25;;;;;;;20.38;69.57;100888.56;5042174;28;20060;-70
2023/06/20 04:38:25;;;;;;;20.60;18.60;;;;;;;20.38;70.05;100887.72;5033043;28;20122;-73
2023/06/20 04:40:51;;;;;;;20.38;18.27;;;;;;;20.38;70.02;100899.38;5040797;28;20077;-75
2023/06/20 04:43:16;;;;;;;19.08;17.25;;;;;;;20.38;69.98;100898.53;5039564;28;20457;-69
2023/06/20 04:45:42;;;;;;;19.48;17.45;;;;;;;20.42;70.23;100889.16;5018321;28;20195;-72
2023/06/20 04:48:07;;;;;;;19.85;17.75;;;;;;;20.50;70.63;100896.59;5039923;28;20307;-74
2023/06/20 04:50:33;;;;;;;18.95;17.00;;;;;;;20.58;70.48;100900.28;5039550;28;20040;-73
2023/06/20 04:52:58;;;;;;;17.98;16.10;;;;;;;20.61;69.97;100897.31;5041282;28;20580;-73
2023/06/20 04:55:24;;;;;;;18.45;16.70;;;;;;;20.71;70.67;100891.91;5040687;28;20108;-70
2023/06/20 04:57:49;;;;;;;18.88;16.88;;;;;;;20.78;70.10;100890.34;5041155;28;20025;-73
2023/06/20 05:00:15;;;;;;;19.00;16.95;;;;;;;20.86;70.46;100893.19;5040832;28;20107;-72
2023/06/20 05:02:44;;;;;;;18.80;16.80;;;;;;;20.97;69.87;100892.16;5019337;28;20059;-72
2023/06/20 05:05:10;;;;;;;19.80;17.80;;;;;;;21.02;70.64;100886.31;5035504;28;20028;-74
2023/06/20 05:07:36;;;;;;;18.60;16.67;;;;;;;21.12;69.19;100884.47;5007582;28;20067;-74
2023/06/20 05:10:01;;;;;;;17.90;15.93;;;;;;;21.24;69.37;100886.00;5033109;28;20035;-73
2023/06/20 05:12:27;;;;;;;17.77;15.90;;;;;;;21.39;68.80;100881.84;5041045;28;20398;-70
2023/06/20 05:14:52;;;;;;;18.02;16.23;;;;;;;21.59;68.69;100877.22;5045142;28;20037;-73
2023/06/20 05:17:17;;;;;;;17.02;15.27;;;;;;;21.81;68.26;100873.28;5044815;28;20394;-71
2023/06/20 05:19:43;;;;;;;16.88;15.18;;;;;;;21.88;66.91;100868.97;5042666;28;20063;-69
2023/06/20 05:22:08;;;;;;;16.20;14.57;;;;;;;21.96;67.54;100865.50;5043804;28;20078;-73
2023/06/20 05:24:34;;;;;;;17.60;15.73;;;;;;;22.00;66.56;100868.78;5043659;28;20091;-74
2023/06/20 05:26:59;;;;;;;17.25;15.45;;;;;;;22.01;66.50;100865.91;5042889;28;20490;-69
2023/06/20 05:29:24;;;;;;;16.55;14.85;;;;;;;22.05;66.88;100859.19;5043908;28;20314;-72
2023/06/20 05:31:49;;;;;;;18.25;15.95;;;;;;;21.99;67.06;100859.78;5043077;28;20181;-73
2023/06/20 05:34:15;;;;;;;17.60;14.63;;;;;;;21.98;67.18;100858.06;5026826;28;20539;-71
2023/06/20 05:36:40;;;;;;;16.80;15.20;;;;;;;21.96;67.12;100862.81;5039259;28;20275;-71
2023/06/20 05:39:08;;;;;;;16.23;14.30;;;;;;;22.06;67.45;100863.59;5044011;28;20025;-74
2023/06/20 05:41:34;;;;;;;17.23;14.50;;;;;;;22.08;67.63;100864.31;5044198;28;20035;-72
2023/06/20 05:43:59;;;;;;;14.75;13.25;;;;;;;22.10;67.84;100853.28;5043591;28;20032;-71
2023/06/20 05:46:25;;;;;;;14.57;12.93;;;;;;;22.11;67.55;100853.16;5042035;28;20139;-69
2023/06/20 05:48:50;;;;;;;13.13;11.93;;;;;;;22.19;67.83;100844.28;5041419;28;20033;-70
2023/06/20 05:51:15;;;;;;;12.55;11.32;;;;;;;22.25;67.79;100851.81;5043239;28;20517;-72
2023/06/20 05:53:41;;;;;;;11.98;9.82;;;;;;;22.30;68.53;100857.63;5039895;28;20073;-70
2023/06/20 05:56:10;;;;;;;11.30;10.20;;;;;;;22.28;68.72;100856.94;5030522;28;20526;-69
2023/06/20 05:58:36;;;;;;;11.85;9.43;;;;;;;22.34;69.01;100859.00;5036067;28;20111;-74
2023/06/20 06:01:03;;;;;;;11.75;10.35;;;;;;;22.47;68.91;100865.91;5036782;28;20487;-70
2023/06/20 06:03:30;;;;;;;11.18;10.07;;;;;;;22.53;68.61;100870.72;5037755;28;20039;-73
2023/06/20 06:05:55;;;;;;;12.15;10.95;;;;;;;22.47;68.83;100863.22;5042574;28;20310;-74
2023/06/20 06:08:21;;;;;;;11.55;10.35;;;;;;;22.55;69.12;100876.84;5018113;28;20029;-68
2023/06/20 06:10:46;;;;;;;11.77;10.60;;;;;;;22.67;68.91;100874.75;5040488;28;20040;-73
2023/06/20 06:13:11;;;;;;;11.13;10.05;;;;;;;22.83;68.81;100886.59;5044395;28;20028;-74
2023/06/20 06:15:37;;;;;;;10.93;9.80;;;;;;;23.12;68.90;100882.81;5036006;28;20035;-70
2023/06/20 06:18:03;;;;;;;12.25;11.05;;;;;;;23.16;68.09;100894.16;5039636;28;20272;-72
2023/06/20 06:20:29;;;;;;;11.55;10.50;;;;;;;23.26;68.43;100878.66;5043507;28;20027;-68
2023/06/20 06:22:55;;;;;;;12.57;9.80;;;;;;;23.60;67.65;100873.25;5039661;28;20103;-72
2023/06/20 06:25:20;;;;;;;7.68;6.40;;;;;;;23.79;66.64;100873.03;5038720;28;20450;-73
2023/06/20 06:27:46;;;;;;;10.48;6.28;;;;;;;24.10;65.63;100864.31;5042427;28;20024;-71
2023/06/20 06:30:11;;;;;;;7.32;5.72;;;;;;;24.25;64.82;100867.25;5043929;28;20606;-72
2023/06/20 06:32:37;;;;;;;6.30;5.70;;;;;;;24.49;64.13;100861.00;5042376;28;20043;-69
2023/06/20 06:35:05;;;;;;;6.75;6.15;;;;;;;24.52;63.23;100871.56;5034733;28;20035;-71
2023/06/20 06:37:31;;;;;;;6.78;5.82;;;;;;;24.62;62.69;100869.53;5031702;28;20028;-70
2023/06/20 06:39:58;;;;;;;8.40;7.07;;;;;;;24.76;63.37;100870.75;5035170;28;20029;-72
2023/06/20 06:42:24;;;;;;;7.60;6.90;;;;;;;24.66;62.43;100886.38;5044737;28;20127;-68
2023/06/20 06:44:50;;;;;;;6.70;6.20;;;;;;;24.80;63.33;100881.13;5044784;28;20482;-72
2023/06/20 06:47:15;;;;;;;7.68;6.88;;;;;;;24.92;61.71;100870.75;5038758;28;20057;-67
2023/06/20 06:49:40;;;;;;;8.13;7.35;;;;;;;25.09;61.85;100867.03;5043828;28;20064;-71
2023/06/20 06:52:06;;;;;;;7.65;6.93;;;;;;;25.29;61.50;100872.97;5036336;28;20045;-73
2023/06/20 06:54:32;;;;;;;7.20;6.50;;;;;;;25.51;60.19;100875.97;5024371;28;20029;-72
2023/06/20 06:56:57;;;;;;;8.75;6.70;;;;;;;25.68;60.38;100869.44;5049996;28;20104;-72
2023/06/20 06:59:22;;;;;;;8.25;7.45;;;;;;;25.79;59.03;100877.28;5050218;28;20422;-70
2023/06/20 07:01:48;;;;;;;8.05;7.25;;;;;;;25.78;58.98;100881.00;5060971;28;20024;-70
2023/06/20 07:04:16;;;;;;;7.38;6.60;;;;;;;25.83;60.11;100875.91;5063977;28;20051;-68
2023/06/20 07:06:42;;;;;;;7.53;6.82;;;;;;;26.01;59.42;100863.88;5065158;28;20044;-68
2023/06/20 07:09:07;;;;;;;7.55;6.50;;;;;;;26.13;58.03;100867.91;5050255;28;20275;-72
2023/06/20 07:11:32;;;;;;;7.70;6.97;;;;;;;26.10;57.85;100865.53;5042468;28;20029;-73
2023/06/20 07:13:58;;;;;;;6.95;6.25;;;;;;;26.42;57.01;100864.50;5038268;28;20065;-74
2023/06/20 07:16:25;;;;;;;7.28;6.43;;;;;;;26.63;57.15;100860.25;5041931;28;20100;-72
2023/06/20 07:18:51;;;;;;;7.20;6.25;;;;;;;26.88;56.62;100858.19;5040753;28;20041;-74
2023/06/20 07:21:17;;;;;;;6.40;5.80;;;;;;;27.02;55.49;100854.66;5041511;28;20021;-74
2023/06/20 07:23:42;;;;;;;6.43;5.78;;;;;;;27.20;55.03;100860.63;5039004;28;20098;-70
2023/06/20 07:26:08;;;;;;;6.22;5.63;;;;;;;26.99;55.32;100855.00;5041721;28;20064;-72
2023/06/20 07:28:33;;;;;;;6.85;6.25;;;;;;;27.01;55.08;100864.72;5018334;28;20036;-70
2023/06/20 07:30:58;;;;;;;7.07;6.47;;;;;;;27.07;54.99;100855.78;5037207;28;20026;-73
2023/06/20 07:33:24;;;;;;;5.68;5.18;;;;;;;27.75;53.91;100847.56;5039294;28;20025;-73
2023/06/20 07:35:49;;;;;;;6.55;5.85;;;;;;;28.24;52.52;100864.19;5021454;28;20481;-70
2023/06/20 07:38:15;;;;;;;7.40;6.50;;;;;;;28.57;51.78;100844.56;5022093;28;20135;-73
2023/06/20 07:40:41;;;;;;;7.40;6.75;;;;;;;28.99;50.02;100848.34;5042529;28;20052;-72
2023/06/20 07:43:07;;;;;;;6.85;6.25;;;;;;;29.05;49.33;100839.31;5042431;28;20032;-72
2023/06/20 07:45:33;;;;;;;6.47;5.88;;;;;;;29.16;48.67;100841.50;5042354;28;20028;-72
2023/06/20 07:47:59;;;;;;;5.65;5.10;;;;;;;29.60;47.58;100839.50;5038751;28;20067;-73
2023/06/20 07:50:24;;;;;;;6.55;5.95;;;;;;;30.23;47.12;100846.53;5041000;28;20103;-74
2023/06/20 07:52:49;;;;;;;6.95;5.43;;;;;;;30.54;45.23;100847.88;5037659;28;20193;-69
2023/06/20 07:55:15;;;;;;;5.60;5.07;;;;;;;30.61;45.41;100853.38;5039369;28;20327;-74
2023/06/20 07:57:40;;;;;;;6.43;5.40;;;;;;;30.31;45.15;100856.50;5038982;28;20043;-73
2023/06/20 08:00:10;;;;;;;6.25;5.60;;;;;;;30.75;44.94;100858.69;5033147;28;20024;-70
2023/06/20 08:02:36;;;;;;;5.85;5.25;;;;;;;31.19;43.31;100862.72;5041114;28;20135;-69
2023/06/20 08:05:01;;;;;;;5.30;4.90;;;;;;;31.14;44.10;100858.91;5039302;28;20111;-72
2023/06/20 08:07:27;;;;;;;5.18;4.68;;;;;;;31.34;42.79;100847.91;5038232;28;20048;-73
2023/06/20 08:09:53;;;;;;;5.65;5.03;;;;;;;31.95;42.08;100851.16;5042536;28;20150;-69
2023/06/20 08:12:18;;;;;;;5.13;4.63;;;;;;;32.40;41.47;100842.91;5038858;28;20021;-72
2023/06/20 08:14:43;;;;;;;4.82;4.40;;;;;;;32.81;39.25;100840.66;5036686;28;20395;-74
2023/06/20 08:17:09;;;;;;;4.97;4.47;;;;;;;32.97;40.22;100841.00;5040723;28;20106;-72
2023/06/20 08:19:34;;;;;;;5.10;4.60;;;;;;;33.37;38.54;100840.63;5041705;28;20127;-73
2023/06/20 08:22:00;;;;;;;4.07;3.78;;;;;;;33.43;37.62;100842.44;5042101;28;20044;-71
2023/06/20 08:24:25;;;;;;;4.57;4.18;;;;;;;33.51;37.21;100846.84;5041980;28;20029;-70
2023/06/20 08:26:50;;;;;;;4.38;3.50;;;;;;;34.05;37.62;100844.31;5042518;28;20134;-73
2023/06/20 08:29:16;;;;;;;4.25;3.75;;;;;;;34.25;35.52;100849.59;5042425;28;20021;-74
2023/06/20 08:31:41;;;;;;;4.25;3.58;;;;;;;34.22;35.64;100845.34;5038570;28;20360;-72
2023/06/20 08:34:07;;;;;;;4.60;3.75;;;;;;;34.17;36.28;100847.97;5041329;28;20384;-71
2023/06/20 08:36:32;;;;;;;5.03;3.67;;;;;;;34.34;35.21;100851.78;5042235;28;20048;-72
2023/06/20 08:38:59;;;;;;;4.30;3.90;;;;;;;34.60;35.34;100846.94;5042137;28;20395;-71
2023/06/20 08:41:25;;;;;;;3.70;3.50;;;;;;;34.79;35.45;100854.09;5041520;28;20502;-69
2023/06/20 08:43:50;;;;;;;5.03;4.10;;;;;;;35.03;34.70;100851.38;5041793;28;20048;-71
2023/06/20 08:46:16;;;;;;;4.03;3.72;;;;;;;35.25;33.84;100848.88;5040121;28;20360;-69
2023/06/20 08:48:41;;;;;;;4.20;3.80;;;;;;;34.99;34.06;100851.03;5041734;28;20049;-72
2023/06/20 08:51:07;;;;;;;4.32;3.92;;;;;;;34.89;34.80;100847.97;5033477;28;20108;-69
2023/06/20 08:53:34;;;;;;;4.43;4.03;;;;;;;35.72;33.50;100848.84;5045557;28;20044;-69
2023/06/20 08:56:01;;;;;;;4.10;3.80;;;;;;;34.85;33.93;100844.00;5045790;28;20025;-69
2023/06/20 08:58:26;;;;;;;5.18;3.95;;;;;;;34.17;35.39;100846.06;5045704;28;20087;-71
2023/06/20 09:00:52;;;;;;;4.15;3.55;;;;;;;35.11;34.36;100843.56;5045802;28;20028;-70
2023/06/20 09:03:17;;;;;;;5.00;4.07;;;;;;;36.20;32.76;100842.06;5046014;28;20312;-70
2023/06/20 09:05:45;;;;;;;4.78;3.88;;;;;;;36.78;31.48;100839.00;5040795;28;20537;-72
2023/06/20 09:08:13;;;;;;;3.95;3.60;;;;;;;37.10;30.26;100836.50;5046109;28;20100;-69
2023/06/20 09:10:39;;;;;;;4.28;3.90;;;;;;;37.35;30.52;100833.25;5045957;28;20036;-71
2023/06/20 09:13:06;;;;;;;3.90;3.50;;;;;;;38.16;29.87;100840.13;5045874;28;20032;-73
2023/06/20 09:15:33;;;;;;;4.45;3.63;;;;;;;39.01;28.85;100832.91;5045502;28;20067;-72
2023/06/20 09:18:01;;;;;;;3.75;3.33;;;;;;;39.08;28.00;100839.91;5044959;28;20025;-74
2023/06/20 09:20:31;;;;;;;4.10;3.70;;;;;;;38.59;28.41;100844.78;5045757;28;20039;-69
2023/06/20 09:22:57;;;;;;;3.83;3.53;;;;;;;38.45;28.14;100844.38;5023531;28;20060;-73
2023/06/20 09:25:24;;;;;;;3.70;3.33;;;;;;;39.08;28.00;100858.56;5027281;28;20165;-71
2023/06/20 09:27:52;;;;;;;3.42;3.08;;;;;;;38.71;27.25;100864.94;5045654;28;20049;-71
2023/06/20 09:30:17;;;;;;;13.60;4.00;;;;;;;39.19;26.94;100851.13;5045629;28;20039;-69
2023/06/20 09:32:43;;;;;;;4.40;3.00;;;;;;;39.84;25.66;100847.09;5044899;28;20652;-73
2023/06/20 09:35:10;;;;;;;2.85;2.65;;;;;;;40.46;25.60;100851.72;5044931;28;20024;-72
2023/06/20 09:37:47;;;;;;;3.83;2.90;;;;;;;40.43;26.08;100857.88;5045079;28;20051;-73
2023/06/20 09:40:17;;;;;;;3.58;3.28;;;;;;;40.19;25.50;100856.69;5035978;28;20025;-69
2023/06/20 09:42:44;;;;;;;3.47;2.85;;;;;;;40.80;25.43;100862.34;5044366;28;20033;-73
2023/06/20 09:45:11;;;;;;;2.70;2.50;;;;;;;41.15;24.34;100869.09;5044962;28;20052;-73
2023/06/20 09:47:39;;;;;;;3.15;2.60;;;;;;;41.21;24.13;100856.78;5036292;28;20056;-72
2023/06/20 09:50:07;;;;;;;2.83;2.55;;;;;;;40.50;24.10;100850.03;5044522;28;20051;-73
2023/06/20 09:52:38;;;;;;;3.35;2.65;;;;;;;40.32;24.69;100847.78;5044456;28;20064;-72
2023/06/20 09:55:09;;;;;;;2.50;2.30;;;;;;;40.91;25.15;100852.88;5032368;28;20168;-71
2023/06/20 09:57:43;;;;;;;4.23;2.97;;;;;;;41.39;24.19;100859.00;5043569;28;20025;-74
2023/06/20 10:00:19;;;;;;;3.50;2.42;;;;;;;41.10;24.58;100849.56;5032913;28;20108;-72
2023/06/20 10:02:46;;;;;;;2.90;2.65;;;;;;;41.31;24.15;100848.38;5032415;28;20023;-74
2023/06/20 10:05:17;;;;;;;4.68;2.90;;;;;;;40.84;24.44;100852.31;5044409;28;20033;-70
2023/06/20 10:07:43;;;;;;;3.10;2.90;;;;;;;41.72;24.37;100839.88;5044046;28;20271;-69
2023/06/20 10:10:10;;;;;;;3.05;2.80;;;;;;;42.39;23.68;100843.19;5044293;28;20104;-71
2023/06/20 10:12:36;;;;;;;4.88;3.05;;;;;;;42.90;22.43;100843.66;5043989;28;20033;-72
2023/06/20 10:15:04;;;;;;;2.92;2.63;;;;;;;42.99;21.62;100833.47;5044124;28;20093;-73
2023/06/20 10:17:31;;;;;;;2.78;2.58;;;;;;;43.28;21.78;100837.44;5044371;28;20473;-72
2023/06/20 10:19:58;;;;;;;3.13;2.70;;;;;;;43.48;22.31;100826.84;5033187;28;20342;-73
2023/06/20 10:22:32;;;;;;;3.85;2.70;;;;;;;43.75;21.42;100825.38;5031338;28;20056;-72
2023/06/20 10:25:02;;;;;;;3.13;2.83;;;;;;;43.28;20.42;100821.44;5043717;28;20025;-72
2023/06/20 10:27:27;;;;;;;3.10;2.80;;;;;;;43.63;20.71;100810.97;5043770;28;20501;-72
2023/06/20 10:29:53;;;;;;;3.03;2.60;;;;;;;43.96;20.88;100804.34;5035233;28;20029;-73
2023/06/20 10:32:18;;;;;;;2.90;2.70;;;;;;;44.55;19.85;100807.66;5036682;28;20427;-72
2023/06/20 10:34:44;;;;;;;3.10;2.78;;;;;;;44.43;19.42;100801.69;5020832;28;20730;-70
2023/06/20 10:37:25;;;;;;;3.00;2.50;;;;;;;44.59;20.13;100791.88;5024097;28;20148;-72
2023/06/20 10:39:55;;;;;;;3.03;2.67;;;;;;;44.93;20.01;100793.53;5041232;28;20110;-72
2023/06/20 10:42:43;;;;;;;4.25;2.80;;;;;;;45.46;19.40;100801.53;5043714;28;20795;-71
2023/06/20 10:45:21;;;;;;;2.92;2.72;;;;;;;45.95;18.86;100797.13;5034064;28;20136;-69
2023/06/20 10:47:47;;;;;;;2.92;2.63;;;;;;;46.20;17.62;100798.53;5020355;28;20120;-72
2023/06/20 10:50:13;;;;;;;2.92;2.47;;;;;;;46.35;18.08;100794.50;5040704;28;20151;-70
2023/06/20 10:52:40;;;;;;;2.70;2.50;;;;;;;47.01;17.51;100794.78;5041926;28;20063;-71
2023/06/20 10:55:37;;;;;;;3.03;2.60;;;;;;;47.11;17.87;100797.31;5037263;28;20028;-72
2023/06/20 10:58:02;;;;;;;5.78;2.50;;;;;;;46.23;16.88;100782.97;5029986;28;20400;-73
2023/06/20 11:00:27;;;;;;;2.50;2.28;;;;;;;45.88;16.89;100786.28;5038135;28;20024;-72
2023/06/20 11:02:55;;;;;;;2.40;2.20;;;;;;;44.78;17.75;100785.44;5021822;28;20083;-71
2023/06/20 11:05:29;;;;;;;2.67;2.47;;;;;;;45.00;18.87;100782.75;5035562;28;20159;-70
2023/06/20 11:08:00;;;;;;;2.33;1.92;;;;;;;45.57;18.39;100771.22;5042602;28;20029;-73
2023/06/20 11:10:30;;;;;;;2.83;2.30;;;;;;;45.73;17.86;100780.97;5042186;28;20581;-73
2023/06/20 11:12:57;;;;;;;2.95;2.15;;;;;;;45.81;17.60;100771.81;5042735;28;20024;-73
2023/06/20 11:15:26;;;;;;;2.53;2.25;;;;;;;45.89;17.03;100764.63;5043256;28;20025;-69
2023/06/20 11:17:51;;;;;;;2.42;2.22;;;;;;;46.33;17.38;100765.84;5040281;28;20287;-73